Central Virginia Flyers


Central Virginia Flyers is a 10 member flying club based in Richmond, VA at Hanover County Airport (KOFP). We own N787AT, a 1977 Cessna 172 with 180hp conversion. If you are interested in membership, please contact Brenton at brenton@cvflyers.org.


Aviation Digital Data Service (ADDS)

Output produced by METARs form (0430 UTC 21 April 2014)
found at http://aviationweather.gov/adds/metars/
 
KOFP 210354Z AUTO 00000KT 10SM CLR 06/00 A3029 RMK AO2 SLP258 T00560000
KRIC 210354Z 03007KT 10SM FEW300 08/M02 A3027 RMK AO2 SLP255 T00781022 $
KRIC 202338Z 2100/2124 05011KT P6SM BKN250 
     FM210600 02006KT P6SM SCT250 
     FM211200 03010KT P6SM SCT250 
     FM211800 01005KT P6SM SCT250